Main page
METAR-TAF:

METAR-TAF

Airports :

Queen Beatrix International Airport

Aruba, Aruba

latitude: 12-30N, longitude: 070-01W, elevation: 18 m

Current weather observation

The report was made 28 minutes ago, at 09:00 UTC
Wind 12 kt from the East
Temperature 28°C
Humidity 79%
Pressure 1010 hPa
Visibility 10 km or more
Few clouds at a height of 1800 ft

METAR: TNCA 180900Z 10012KT 9999 FEW018 28/24 Q1010 NOSIG

Time: 05:28 (09:28 UTC)

Forecast

The report was made 4 hours and 13 minutes ago, at 05:15 UTC
Forecast valid from 18 at 06 UTC to 19 at 06 UTC
Wind 18 kt from the East
Visibility 10 km or more
Few clouds at a height of 2000 ft

TAF: TNCA 180515Z 1806/1906 09018KT 9999 FEW020

Weather observations and forecasts of more than 4000 airports (METAR and TAF reports).

The available stations are represented by yellow and red dots on the map.

Hover mouse over dot to see the name of the station.

Then click to see weather observations and forecasts.

To change the map : click on the green buttons with a black cross to zoom in, on the green button with a dash to zoom out, or on the green arrows for adjacent maps.


METAR-TAF: